sensor_id;sensor_type;location;lat;lon;timestamp;P1;durP1;ratioP1;P2;durP2;ratioP2
40757;SDS011;26462;47.384;19.218;2022-07-23T00:00:30;7.18;;;3.95;;
40757;SDS011;26462;47.384;19.218;2022-07-23T00:03:05;10.50;;;3.85;;
40757;SDS011;26462;47.384;19.218;2022-07-23T00:05:34;8.90;;;4.13;;
40757;SDS011;26462;47.384;19.218;2022-07-23T00:08:03;6.90;;;3.60;;
40757;SDS011;26462;47.384;19.218;2022-07-23T00:10:36;7.63;;;3.85;;
40757;SDS011;26462;47.384;19.218;2022-07-23T00:13:03;10.40;;;4.03;;
40757;SDS011;26462;47.384;19.218;2022-07-23T00:15:31;12.57;;;4.00;;
40757;SDS011;26462;47.384;19.218;2022-07-23T00:17:58;9.00;;;4.32;;
40757;SDS011;26462;47.384;19.218;2022-07-23T00:20:26;11.25;;;3.95;;
40757;SDS011;26462;47.384;19.218;2022-07-23T00:22:54;9.45;;;3.75;;
40757;SDS011;26462;47.384;19.218;2022-07-23T00:25:22;8.05;;;4.00;;
40757;SDS011;26462;47.384;19.218;2022-07-23T00:27:56;9.63;;;3.75;;
40757;SDS011;26462;47.384;19.218;2022-07-23T00:30:24;6.50;;;3.92;;
40757;SDS011;26462;47.384;19.218;2022-07-23T00:32:53;10.55;;;3.90;;
40757;SDS011;26462;47.384;19.218;2022-07-23T00:35:26;9.02;;;4.22;;
40757;SDS011;26462;47.384;19.218;2022-07-23T00:37:55;8.55;;;4.50;;
40757;SDS011;26462;47.384;19.218;2022-07-23T00:40:23;10.73;;;4.53;;
40757;SDS011;26462;47.384;19.218;2022-07-23T00:42:52;12.52;;;3.97;;
40757;SDS011;26462;47.384;19.218;2022-07-23T00:45:20;10.55;;;4.20;;
40757;SDS011;26462;47.384;19.218;2022-07-23T00:47:48;11.60;;;3.78;;
40757;SDS011;26462;47.384;19.218;2022-07-23T00:50:15;10.48;;;3.83;;
40757;SDS011;26462;47.384;19.218;2022-07-23T00:52:43;6.75;;;3.65;;
40757;SDS011;26462;47.384;19.218;2022-07-23T00:55:12;8.40;;;3.88;;
40757;SDS011;26462;47.384;19.218;2022-07-23T00:57:40;11.57;;;3.88;;
40757;SDS011;26462;47.384;19.218;2022-07-23T01:00:10;12.07;;;4.22;;
40757;SDS011;26462;47.384;19.218;2022-07-23T01:02:39;7.20;;;3.45;;
40757;SDS011;26462;47.384;19.218;2022-07-23T01:05:07;9.00;;;3.60;;
40757;SDS011;26462;47.384;19.218;2022-07-23T01:07:36;7.43;;;4.28;;
40757;SDS011;26462;47.384;19.218;2022-07-23T01:10:04;9.07;;;4.03;;
40757;SDS011;26462;47.384;19.218;2022-07-23T01:12:52;7.28;;;3.88;;
40757;SDS011;26462;47.384;19.218;2022-07-23T01:15:21;10.45;;;4.35;;
40757;SDS011;26462;47.384;19.218;2022-07-23T01:17:49;10.02;;;4.47;;
40757;SDS011;26462;47.384;19.218;2022-07-23T01:20:17;10.27;;;4.65;;
40757;SDS011;26462;47.384;19.218;2022-07-23T01:22:45;14.68;;;4.65;;
40757;SDS011;26462;47.384;19.218;2022-07-23T01:25:13;8.40;;;4.70;;
40757;SDS011;26462;47.384;19.218;2022-07-23T01:27:49;8.93;;;4.05;;
40757;SDS011;26462;47.384;19.218;2022-07-23T01:30:19;12.75;;;4.28;;
40757;SDS011;26462;47.384;19.218;2022-07-23T01:32:47;12.38;;;4.60;;
40757;SDS011;26462;47.384;19.218;2022-07-23T01:35:14;9.55;;;3.95;;
40757;SDS011;26462;47.384;19.218;2022-07-23T01:37:42;10.48;;;4.05;;
40757;SDS011;26462;47.384;19.218;2022-07-23T01:40:10;9.82;;;4.00;;
40757;SDS011;26462;47.384;19.218;2022-07-23T01:42:37;6.93;;;4.68;;
40757;SDS011;26462;47.384;19.218;2022-07-23T01:45:09;14.82;;;4.72;;
40757;SDS011;26462;47.384;19.218;2022-07-23T01:47:42;8.20;;;4.32;;
40757;SDS011;26462;47.384;19.218;2022-07-23T01:50:09;8.05;;;4.47;;
40757;SDS011;26462;47.384;19.218;2022-07-23T01:53:03;7.97;;;3.95;;
40757;SDS011;26462;47.384;19.218;2022-07-23T01:55:30;10.00;;;4.43;;
40757;SDS011;26462;47.384;19.218;2022-07-23T01:57:58;7.45;;;3.75;;
40757;SDS011;26462;47.384;19.218;2022-07-23T02:00:28;10.48;;;4.13;;
40757;SDS011;26462;47.384;19.218;2022-07-23T02:02:56;9.35;;;4.53;;
40757;SDS011;26462;47.384;19.218;2022-07-23T02:05:26;8.48;;;4.18;;
40757;SDS011;26462;47.384;19.218;2022-07-23T02:07:55;7.95;;;4.22;;
40757;SDS011;26462;47.384;19.218;2022-07-23T02:10:23;7.88;;;4.35;;
40757;SDS011;26462;47.384;19.218;2022-07-23T02:12:51;8.13;;;4.18;;
40757;SDS011;26462;47.384;19.218;2022-07-23T02:15:19;7.65;;;3.67;;
40757;SDS011;26462;47.384;19.218;2022-07-23T02:17:47;8.02;;;4.15;;
40757;SDS011;26462;47.384;19.218;2022-07-23T02:20:15;11.15;;;3.85;;
40757;SDS011;26462;47.384;19.218;2022-07-23T02:22:43;7.65;;;3.95;;
40757;SDS011;26462;47.384;19.218;2022-07-23T02:25:10;7.05;;;4.40;;
40757;SDS011;26462;47.384;19.218;2022-07-23T02:27:38;10.60;;;4.50;;
40757;SDS011;26462;47.384;19.218;2022-07-23T02:30:06;8.95;;;4.85;;
40757;SDS011;26462;47.384;19.218;2022-07-23T02:32:34;8.25;;;3.95;;
40757;SDS011;26462;47.384;19.218;2022-07-23T02:35:03;10.45;;;4.43;;
40757;SDS011;26462;47.384;19.218;2022-07-23T02:37:31;10.18;;;4.32;;
40757;SDS011;26462;47.384;19.218;2022-07-23T02:39:59;10.25;;;4.15;;
40757;SDS011;26462;47.384;19.218;2022-07-23T02:42:26;7.03;;;3.90;;
40757;SDS011;26462;47.384;19.218;2022-07-23T02:44:54;7.55;;;4.10;;
40757;SDS011;26462;47.384;19.218;2022-07-23T02:47:22;7.68;;;4.20;;
40757;SDS011;26462;47.384;19.218;2022-07-23T02:49:49;6.78;;;4.20;;
40757;SDS011;26462;47.384;19.218;2022-07-23T02:52:17;9.45;;;3.90;;
40757;SDS011;26462;47.384;19.218;2022-07-23T02:54:44;9.93;;;4.18;;
40757;SDS011;26462;47.384;19.218;2022-07-23T02:57:14;8.52;;;3.92;;
40757;SDS011;26462;47.384;19.218;2022-07-23T02:59:42;8.65;;;4.00;;
40757;SDS011;26462;47.384;19.218;2022-07-23T03:02:09;8.35;;;4.25;;
40757;SDS011;26462;47.384;19.218;2022-07-23T03:04:37;8.88;;;4.80;;
40757;SDS011;26462;47.384;19.218;2022-07-23T03:07:05;12.10;;;4.68;;
40757;SDS011;26462;47.384;19.218;2022-07-23T03:09:32;7.18;;;3.83;;
40757;SDS011;26462;47.384;19.218;2022-07-23T03:12:00;13.52;;;4.57;;
40757;SDS011;26462;47.384;19.218;2022-07-23T03:14:28;8.73;;;4.00;;
40757;SDS011;26462;47.384;19.218;2022-07-23T03:16:55;9.98;;;4.45;;
40757;SDS011;26462;47.384;19.218;2022-07-23T03:19:23;11.85;;;4.60;;
40757;SDS011;26462;47.384;19.218;2022-07-23T03:21:50;7.53;;;4.18;;
40757;SDS011;26462;47.384;19.218;2022-07-23T03:24:18;8.18;;;4.00;;
40757;SDS011;26462;47.384;19.218;2022-07-23T03:26:45;8.07;;;4.57;;
40757;SDS011;26462;47.384;19.218;2022-07-23T03:29:12;8.10;;;4.68;;
40757;SDS011;26462;47.384;19.218;2022-07-23T03:31:41;9.27;;;4.15;;
40757;SDS011;26462;47.384;19.218;2022-07-23T03:34:08;8.18;;;3.95;;
40757;SDS011;26462;47.384;19.218;2022-07-23T03:36:36;8.63;;;4.22;;
40757;SDS011;26462;47.384;19.218;2022-07-23T03:39:04;12.20;;;4.68;;
40757;SDS011;26462;47.384;19.218;2022-07-23T03:41:39;13.90;;;4.55;;
40757;SDS011;26462;47.384;19.218;2022-07-23T03:44:07;12.95;;;4.75;;
40757;SDS011;26462;47.384;19.218;2022-07-23T03:46:34;12.57;;;5.22;;
40757;SDS011;26462;47.384;19.218;2022-07-23T03:49:01;8.75;;;4.78;;
40757;SDS011;26462;47.384;19.218;2022-07-23T03:51:29;12.70;;;4.70;;
40757;SDS011;26462;47.384;19.218;2022-07-23T03:53:56;10.73;;;4.53;;
40757;SDS011;26462;47.384;19.218;2022-07-23T03:56:23;12.00;;;4.95;;
40757;SDS011;26462;47.384;19.218;2022-07-23T03:58:51;14.20;;;5.03;;
40757;SDS011;26462;47.384;19.218;2022-07-23T04:01:19;22.23;;;6.15;;
40757;SDS011;26462;47.384;19.218;2022-07-23T04:03:47;24.88;;;6.50;;
40757;SDS011;26462;47.384;19.218;2022-07-23T04:06:14;17.60;;;5.45;;
40757;SDS011;26462;47.384;19.218;2022-07-23T04:08:42;17.40;;;5.32;;
40757;SDS011;26462;47.384;19.218;2022-07-23T04:11:09;14.75;;;6.25;;
40757;SDS011;26462;47.384;19.218;2022-07-23T04:13:37;14.05;;;5.88;;
40757;SDS011;26462;47.384;19.218;2022-07-23T04:16:04;11.95;;;5.65;;
40757;SDS011;26462;47.384;19.218;2022-07-23T04:18:33;15.32;;;6.05;;
40757;SDS011;26462;47.384;19.218;2022-07-23T04:21:14;13.93;;;5.60;;
40757;SDS011;26462;47.384;19.218;2022-07-23T04:23:43;11.32;;;5.53;;
40757;SDS011;26462;47.384;19.218;2022-07-23T04:26:12;7.35;;;5.32;;
40757;SDS011;26462;47.384;19.218;2022-07-23T04:28:44;15.25;;;5.82;;
40757;SDS011;26462;47.384;19.218;2022-07-23T04:31:12;9.23;;;4.88;;
40757;SDS011;26462;47.384;19.218;2022-07-23T04:33:39;9.68;;;5.30;;
40757;SDS011;26462;47.384;19.218;2022-07-23T04:36:07;10.73;;;5.07;;
40757;SDS011;26462;47.384;19.218;2022-07-23T04:38:34;8.05;;;5.32;;
40757;SDS011;26462;47.384;19.218;2022-07-23T04:41:03;10.73;;;5.32;;
40757;SDS011;26462;47.384;19.218;2022-07-23T04:43:30;10.57;;;5.10;;
40757;SDS011;26462;47.384;19.218;2022-07-23T04:45:57;8.45;;;4.70;;
40757;SDS011;26462;47.384;19.218;2022-07-23T04:48:26;12.15;;;4.78;;
40757;SDS011;26462;47.384;19.218;2022-07-23T04:51:06;10.48;;;4.57;;
40757;SDS011;26462;47.384;19.218;2022-07-23T04:53:36;10.75;;;4.55;;
40757;SDS011;26462;47.384;19.218;2022-07-23T04:56:05;7.03;;;4.28;;
40757;SDS011;26462;47.384;19.218;2022-07-23T04:58:32;8.65;;;3.72;;
40757;SDS011;26462;47.384;19.218;2022-07-23T05:00:59;11.10;;;4.20;;
40757;SDS011;26462;47.384;19.218;2022-07-23T05:03:29;12.85;;;4.38;;
40757;SDS011;26462;47.384;19.218;2022-07-23T05:05:56;8.98;;;3.85;;
40757;SDS011;26462;47.384;19.218;2022-07-23T05:08:24;7.80;;;3.97;;
40757;SDS011;26462;47.384;19.218;2022-07-23T05:10:54;8.55;;;3.72;;
40757;SDS011;26462;47.384;19.218;2022-07-23T05:13:21;12.73;;;4.00;;
40757;SDS011;26462;47.384;19.218;2022-07-23T05:15:50;9.07;;;3.45;;
40757;SDS011;26462;47.384;19.218;2022-07-23T05:18:19;7.80;;;3.47;;
40757;SDS011;26462;47.384;19.218;2022-07-23T05:20:47;6.70;;;3.20;;
40757;SDS011;26462;47.384;19.218;2022-07-23T05:23:18;6.22;;;2.67;;
40757;SDS011;26462;47.384;19.218;2022-07-23T05:25:47;5.80;;;2.90;;
40757;SDS011;26462;47.384;19.218;2022-07-23T05:28:15;4.85;;;3.03;;
40757;SDS011;26462;47.384;19.218;2022-07-23T05:33:18;5.57;;;3.03;;
40757;SDS011;26462;47.384;19.218;2022-07-23T05:35:46;5.95;;;3.10;;
40757;SDS011;26462;47.384;19.218;2022-07-23T05:38:28;7.35;;;3.15;;
40757;SDS011;26462;47.384;19.218;2022-07-23T05:40:58;7.28;;;3.35;;
40757;SDS011;26462;47.384;19.218;2022-07-23T05:43:27;7.53;;;3.17;;
40757;SDS011;26462;47.384;19.218;2022-07-23T05:45:56;8.10;;;2.97;;
40757;SDS011;26462;47.384;19.218;2022-07-23T05:48:24;4.95;;;3.20;;
40757;SDS011;26462;47.384;19.218;2022-07-23T05:51:19;7.85;;;3.20;;
40757;SDS011;26462;47.384;19.218;2022-07-23T05:53:51;6.80;;;3.35;;
40757;SDS011;26462;47.384;19.218;2022-07-23T05:56:20;7.97;;;3.50;;
40757;SDS011;26462;47.384;19.218;2022-07-23T05:58:48;5.78;;;3.03;;
40757;SDS011;26462;47.384;19.218;2022-07-23T06:01:17;9.93;;;3.45;;
40757;SDS011;26462;47.384;19.218;2022-07-23T06:03:54;4.97;;;3.13;;
40757;SDS011;26462;47.384;19.218;2022-07-23T06:06:28;7.00;;;3.45;;
40757;SDS011;26462;47.384;19.218;2022-07-23T06:08:56;6.45;;;3.78;;
40757;SDS011;26462;47.384;19.218;2022-07-23T06:11:24;5.43;;;3.05;;
40757;SDS011;26462;47.384;19.218;2022-07-23T06:13:51;6.32;;;3.30;;
40757;SDS011;26462;47.384;19.218;2022-07-23T06:16:23;8.10;;;3.17;;
40757;SDS011;26462;47.384;19.218;2022-07-23T06:18:51;8.38;;;3.25;;
40757;SDS011;26462;47.384;19.218;2022-07-23T06:21:19;5.60;;;3.50;;
40757;SDS011;26462;47.384;19.218;2022-07-23T06:24:06;9.52;;;3.38;;
40757;SDS011;26462;47.384;19.218;2022-07-23T06:26:34;6.78;;;2.70;;
40757;SDS011;26462;47.384;19.218;2022-07-23T06:29:02;5.45;;;2.97;;
40757;SDS011;26462;47.384;19.218;2022-07-23T06:31:30;7.28;;;3.88;;
40757;SDS011;26462;47.384;19.218;2022-07-23T06:33:58;6.72;;;2.83;;
40757;SDS011;26462;47.384;19.218;2022-07-23T06:36:26;5.63;;;2.60;;
40757;SDS011;26462;47.384;19.218;2022-07-23T06:38:53;6.38;;;2.90;;
40757;SDS011;26462;47.384;19.218;2022-07-23T06:41:21;9.35;;;3.30;;
40757;SDS011;26462;47.384;19.218;2022-07-23T06:43:49;10.70;;;3.28;;
40757;SDS011;26462;47.384;19.218;2022-07-23T06:46:17;7.22;;;2.72;;
40757;SDS011;26462;47.384;19.218;2022-07-23T06:48:45;5.22;;;2.97;;
40757;SDS011;26462;47.384;19.218;2022-07-23T06:51:13;7.20;;;2.75;;
40757;SDS011;26462;47.384;19.218;2022-07-23T06:53:41;5.63;;;2.60;;
40757;SDS011;26462;47.384;19.218;2022-07-23T06:56:08;3.88;;;2.65;;
40757;SDS011;26462;47.384;19.218;2022-07-23T06:58:36;7.03;;;2.65;;
40757;SDS011;26462;47.384;19.218;2022-07-23T07:01:04;4.70;;;2.45;;
40757;SDS011;26462;47.384;19.218;2022-07-23T07:03:32;6.07;;;2.80;;
40757;SDS011;26462;47.384;19.218;2022-07-23T07:06:00;4.18;;;2.97;;
40757;SDS011;26462;47.384;19.218;2022-07-23T07:08:29;5.38;;;2.50;;
40757;SDS011;26462;47.384;19.218;2022-07-23T07:10:56;9.80;;;2.83;;
40757;SDS011;26462;47.384;19.218;2022-07-23T07:13:24;5.30;;;2.47;;
40757;SDS011;26462;47.384;19.218;2022-07-23T07:15:51;6.88;;;2.63;;
40757;SDS011;26462;47.384;19.218;2022-07-23T07:18:19;4.80;;;2.85;;
40757;SDS011;26462;47.384;19.218;2022-07-23T07:20:46;6.00;;;2.70;;
40757;SDS011;26462;47.384;19.218;2022-07-23T07:23:14;7.82;;;2.83;;
40757;SDS011;26462;47.384;19.218;2022-07-23T07:25:42;9.30;;;2.85;;
40757;SDS011;26462;47.384;19.218;2022-07-23T07:28:09;4.45;;;2.90;;
40757;SDS011;26462;47.384;19.218;2022-07-23T07:30:36;4.07;;;2.22;;
40757;SDS011;26462;47.384;19.218;2022-07-23T07:33:04;7.97;;;2.95;;
40757;SDS011;26462;47.384;19.218;2022-07-23T07:35:32;3.72;;;2.60;;
40757;SDS011;26462;47.384;19.218;2022-07-23T07:37:59;7.43;;;2.70;;
40757;SDS011;26462;47.384;19.218;2022-07-23T07:40:27;5.97;;;2.90;;
40757;SDS011;26462;47.384;19.218;2022-07-23T07:42:59;5.80;;;2.40;;
40757;SDS011;26462;47.384;19.218;2022-07-23T07:45:28;5.43;;;2.72;;
40757;SDS011;26462;47.384;19.218;2022-07-23T07:47:56;6.72;;;3.17;;
40757;SDS011;26462;47.384;19.218;2022-07-23T07:50:24;5.90;;;2.58;;
40757;SDS011;26462;47.384;19.218;2022-07-23T07:52:51;6.05;;;2.60;;
40757;SDS011;26462;47.384;19.218;2022-07-23T07:55:19;7.78;;;2.70;;
40757;SDS011;26462;47.384;19.218;2022-07-23T07:57:47;8.57;;;2.80;;
40757;SDS011;26462;47.384;19.218;2022-07-23T08:00:15;5.68;;;2.45;;
40757;SDS011;26462;47.384;19.218;2022-07-23T08:02:49;5.70;;;2.67;;
40757;SDS011;26462;47.384;19.218;2022-07-23T08:05:19;6.82;;;2.90;;
40757;SDS011;26462;47.384;19.218;2022-07-23T08:07:54;6.78;;;2.40;;
40757;SDS011;26462;47.384;19.218;2022-07-23T08:10:23;5.75;;;3.03;;
40757;SDS011;26462;47.384;19.218;2022-07-23T08:12:51;4.93;;;2.38;;
40757;SDS011;26462;47.384;19.218;2022-07-23T08:15:20;7.10;;;2.30;;
40757;SDS011;26462;47.384;19.218;2022-07-23T08:17:49;10.77;;;2.60;;
40757;SDS011;26462;47.384;19.218;2022-07-23T08:20:17;5.80;;;2.50;;
40757;SDS011;26462;47.384;19.218;2022-07-23T08:22:48;7.30;;;3.30;;
40757;SDS011;26462;47.384;19.218;2022-07-23T08:25:26;4.85;;;2.35;;
40757;SDS011;26462;47.384;19.218;2022-07-23T08:27:55;5.03;;;2.65;;
40757;SDS011;26462;47.384;19.218;2022-07-23T08:30:23;4.65;;;2.50;;
40757;SDS011;26462;47.384;19.218;2022-07-23T08:33:01;4.55;;;2.60;;
40757;SDS011;26462;47.384;19.218;2022-07-23T08:36:00;5.60;;;2.65;;
40757;SDS011;26462;47.384;19.218;2022-07-23T08:38:30;4.45;;;2.63;;
40757;SDS011;26462;47.384;19.218;2022-07-23T08:40:58;6.10;;;2.40;;
40757;SDS011;26462;47.384;19.218;2022-07-23T08:43:26;6.50;;;2.83;;
40757;SDS011;26462;47.384;19.218;2022-07-23T08:45:59;4.88;;;2.38;;
40757;SDS011;26462;47.384;19.218;2022-07-23T08:48:29;5.45;;;2.88;;
40757;SDS011;26462;47.384;19.218;2022-07-23T08:50:59;5.88;;;3.25;;
40757;SDS011;26462;47.384;19.218;2022-07-23T08:53:28;5.43;;;2.55;;
40757;SDS011;26462;47.384;19.218;2022-07-23T08:55:58;6.20;;;2.72;;
40757;SDS011;26462;47.384;19.218;2022-07-23T09:00:56;7.57;;;2.88;;
40757;SDS011;26462;47.384;19.218;2022-07-23T09:03:34;4.22;;;2.17;;
40757;SDS011;26462;47.384;19.218;2022-07-23T09:06:03;5.00;;;2.55;;
40757;SDS011;26462;47.384;19.218;2022-07-23T09:08:37;6.68;;;2.45;;
40757;SDS011;26462;47.384;19.218;2022-07-23T09:11:10;6.18;;;2.70;;
40757;SDS011;26462;47.384;19.218;2022-07-23T09:13:50;3.25;;;2.38;;
40757;SDS011;26462;47.384;19.218;2022-07-23T09:16:23;6.20;;;2.85;;
40757;SDS011;26462;47.384;19.218;2022-07-23T09:18:53;3.85;;;3.13;;
40757;SDS011;26462;47.384;19.218;2022-07-23T09:21:29;7.35;;;2.90;;
40757;SDS011;26462;47.384;19.218;2022-07-23T09:24:05;2.53;;;2.33;;
40757;SDS011;26462;47.384;19.218;2022-07-23T09:31:47;4.60;;;2.47;;
40757;SDS011;26462;47.384;19.218;2022-07-23T09:34:26;4.70;;;2.90;;
40757;SDS011;26462;47.384;19.218;2022-07-23T09:37:11;6.68;;;2.72;;
40757;SDS011;26462;47.384;19.218;2022-07-23T09:39:40;4.30;;;2.53;;
40757;SDS011;26462;47.384;19.218;2022-07-23T09:42:20;4.88;;;2.40;;
40757;SDS011;26462;47.384;19.218;2022-07-23T09:44:53;5.85;;;2.75;;
40757;SDS011;26462;47.384;19.218;2022-07-23T09:47:23;8.45;;;2.80;;
40757;SDS011;26462;47.384;19.218;2022-07-23T09:50:27;4.32;;;2.60;;
40757;SDS011;26462;47.384;19.218;2022-07-23T09:52:52;3.58;;;2.60;;
40757;SDS011;26462;47.384;19.218;2022-07-23T09:55:21;4.47;;;2.85;;
40757;SDS011;26462;47.384;19.218;2022-07-23T09:58:05;8.98;;;2.50;;
40757;SDS011;26462;47.384;19.218;2022-07-23T10:00:36;7.63;;;2.55;;
40757;SDS011;26462;47.384;19.218;2022-07-23T10:03:04;9.25;;;3.35;;
40757;SDS011;26462;47.384;19.218;2022-07-23T10:05:39;3.92;;;2.70;;
40757;SDS011;26462;47.384;19.218;2022-07-23T10:08:28;4.25;;;2.42;;
40757;SDS011;26462;47.384;19.218;2022-07-23T10:11:17;4.45;;;3.13;;
40757;SDS011;26462;47.384;19.218;2022-07-23T10:14:06;5.07;;;2.75;;
40757;SDS011;26462;47.384;19.218;2022-07-23T10:16:50;5.32;;;2.50;;
40757;SDS011;26462;47.384;19.218;2022-07-23T10:19:18;5.65;;;2.42;;
40757;SDS011;26462;47.384;19.218;2022-07-23T10:21:46;5.07;;;3.00;;
40757;SDS011;26462;47.384;19.218;2022-07-23T10:35:27;6.15;;;2.55;;
40757;SDS011;26462;47.384;19.218;2022-07-23T10:38:24;6.95;;;3.00;;
40757;SDS011;26462;47.384;19.218;2022-07-23T10:40:58;8.18;;;3.28;;
40757;SDS011;26462;47.384;19.218;2022-07-23T10:43:28;5.47;;;2.35;;
40757;SDS011;26462;47.384;19.218;2022-07-23T10:49:24;3.70;;;2.50;;
40757;SDS011;26462;47.384;19.218;2022-07-23T10:52:38;5.35;;;2.20;;
40757;SDS011;26462;47.384;19.218;2022-07-23T10:57:47;6.97;;;2.65;;
40757;SDS011;26462;47.384;19.218;2022-07-23T11:00:26;5.32;;;2.40;;
40757;SDS011;26462;47.384;19.218;2022-07-23T11:02:56;6.38;;;3.00;;
40757;SDS011;26462;47.384;19.218;2022-07-23T11:05:41;2.67;;;2.15;;
40757;SDS011;26462;47.384;19.218;2022-07-23T11:08:15;2.58;;;2.38;;
40757;SDS011;26462;47.384;19.218;2022-07-23T11:10:51;4.47;;;2.55;;
40757;SDS011;26462;47.384;19.218;2022-07-23T11:24:07;2.83;;;2.53;;
40757;SDS011;26462;47.384;19.218;2022-07-23T11:32:29;5.30;;;3.25;;
40757;SDS011;26462;47.384;19.218;2022-07-23T11:34:56;7.50;;;3.10;;
40757;SDS011;26462;47.384;19.218;2022-07-23T11:37:37;5.57;;;3.10;;
40757;SDS011;26462;47.384;19.218;2022-07-23T11:40:11;4.93;;;3.40;;
40757;SDS011;26462;47.384;19.218;2022-07-23T11:45:29;5.15;;;3.40;;
40757;SDS011;26462;47.384;19.218;2022-07-23T11:48:00;5.97;;;3.75;;
40757;SDS011;26462;47.384;19.218;2022-07-23T11:50:28;10.20;;;3.50;;
40757;SDS011;26462;47.384;19.218;2022-07-23T11:52:57;4.68;;;3.50;;
40757;SDS011;26462;47.384;19.218;2022-07-23T11:55:25;4.22;;;3.33;;
40757;SDS011;26462;47.384;19.218;2022-07-23T11:57:52;4.47;;;3.30;;
40757;SDS011;26462;47.384;19.218;2022-07-23T12:00:23;3.75;;;3.00;;
40757;SDS011;26462;47.384;19.218;2022-07-23T12:02:55;4.90;;;3.28;;
40757;SDS011;26462;47.384;19.218;2022-07-23T12:05:29;6.82;;;3.88;;
40757;SDS011;26462;47.384;19.218;2022-07-23T12:08:02;5.45;;;3.85;;
40757;SDS011;26462;47.384;19.218;2022-07-23T12:10:39;6.65;;;4.20;;
40757;SDS011;26462;47.384;19.218;2022-07-23T12:13:12;6.65;;;3.15;;
40757;SDS011;26462;47.384;19.218;2022-07-23T12:15:43;5.15;;;3.55;;
40757;SDS011;26462;47.384;19.218;2022-07-23T12:18:14;5.97;;;3.60;;
40757;SDS011;26462;47.384;19.218;2022-07-23T12:20:44;5.03;;;3.83;;
40757;SDS011;26462;47.384;19.218;2022-07-23T12:23:14;8.50;;;3.40;;
40757;SDS011;26462;47.384;19.218;2022-07-23T12:25:47;7.35;;;3.42;;
40757;SDS011;26462;47.384;19.218;2022-07-23T12:28:17;5.65;;;3.08;;
40757;SDS011;26462;47.384;19.218;2022-07-23T12:30:50;9.10;;;3.65;;
40757;SDS011;26462;47.384;19.218;2022-07-23T12:33:35;4.80;;;3.35;;
40757;SDS011;26462;47.384;19.218;2022-07-23T12:36:06;5.20;;;3.25;;
40757;SDS011;26462;47.384;19.218;2022-07-23T12:38:42;5.35;;;2.97;;
40757;SDS011;26462;47.384;19.218;2022-07-23T12:41:13;5.65;;;2.92;;
40757;SDS011;26462;47.384;19.218;2022-07-23T12:43:42;6.07;;;3.60;;
40757;SDS011;26462;47.384;19.218;2022-07-23T12:46:13;3.65;;;3.30;;
40757;SDS011;26462;47.384;19.218;2022-07-23T12:51:21;6.38;;;3.38;;
40757;SDS011;26462;47.384;19.218;2022-07-23T12:54:12;5.78;;;3.13;;
40757;SDS011;26462;47.384;19.218;2022-07-23T12:56:40;9.65;;;3.58;;
40757;SDS011;26462;47.384;19.218;2022-07-23T12:59:14;4.43;;;2.83;;
40757;SDS011;26462;47.384;19.218;2022-07-23T13:01:45;4.35;;;2.67;;
40757;SDS011;26462;47.384;19.218;2022-07-23T13:04:23;4.20;;;2.65;;
40757;SDS011;26462;47.384;19.218;2022-07-23T13:06:53;5.07;;;3.03;;
40757;SDS011;26462;47.384;19.218;2022-07-23T13:09:42;4.53;;;2.70;;
40757;SDS011;26462;47.384;19.218;2022-07-23T13:12:09;5.50;;;2.63;;
40757;SDS011;26462;47.384;19.218;2022-07-23T13:14:38;5.25;;;3.10;;
40757;SDS011;26462;47.384;19.218;2022-07-23T13:17:07;4.28;;;3.30;;
40757;SDS011;26462;47.384;19.218;2022-07-23T13:19:35;5.43;;;3.28;;
40757;SDS011;26462;47.384;19.218;2022-07-23T13:22:02;5.40;;;3.40;;
40757;SDS011;26462;47.384;19.218;2022-07-23T13:24:35;5.10;;;2.90;;
40757;SDS011;26462;47.384;19.218;2022-07-23T13:27:05;7.05;;;3.30;;
40757;SDS011;26462;47.384;19.218;2022-07-23T13:29:37;6.18;;;3.17;;
40757;SDS011;26462;47.384;19.218;2022-07-23T13:32:04;7.65;;;3.10;;
40757;SDS011;26462;47.384;19.218;2022-07-23T13:34:36;5.28;;;3.30;;
40757;SDS011;26462;47.384;19.218;2022-07-23T13:37:06;5.35;;;3.40;;
40757;SDS011;26462;47.384;19.218;2022-07-23T13:39:33;4.90;;;2.85;;
40757;SDS011;26462;47.384;19.218;2022-07-23T13:42:04;4.03;;;3.27;;
40757;SDS011;26462;47.384;19.218;2022-07-23T13:44:33;5.20;;;3.25;;
40757;SDS011;26462;47.384;19.218;2022-07-23T13:47:02;5.30;;;3.03;;
40757;SDS011;26462;47.384;19.218;2022-07-23T13:49:30;4.30;;;3.00;;
40757;SDS011;26462;47.384;19.218;2022-07-23T13:52:00;3.67;;;2.72;;
40757;SDS011;26462;47.384;19.218;2022-07-23T13:54:33;3.60;;;3.15;;
40757;SDS011;26462;47.384;19.218;2022-07-23T13:57:01;5.65;;;3.50;;
40757;SDS011;26462;47.384;19.218;2022-07-23T13:59:28;4.50;;;3.33;;
40757;SDS011;26462;47.384;19.218;2022-07-23T14:01:56;4.28;;;3.58;;
40757;SDS011;26462;47.384;19.218;2022-07-23T14:04:44;5.65;;;3.28;;
40757;SDS011;26462;47.384;19.218;2022-07-23T14:07:11;4.00;;;3.40;;
40757;SDS011;26462;47.384;19.218;2022-07-23T14:09:39;4.63;;;3.17;;
40757;SDS011;26462;47.384;19.218;2022-07-23T14:12:06;4.25;;;3.50;;
40757;SDS011;26462;47.384;19.218;2022-07-23T14:14:36;4.63;;;3.17;;
40757;SDS011;26462;47.384;19.218;2022-07-23T14:17:04;3.47;;;3.17;;
40757;SDS011;26462;47.384;19.218;2022-07-23T14:19:32;4.65;;;3.22;;
40757;SDS011;26462;47.384;19.218;2022-07-23T14:22:00;3.42;;;3.13;;
40757;SDS011;26462;47.384;19.218;2022-07-23T14:24:28;4.55;;;3.05;;
40757;SDS011;26462;47.384;19.218;2022-07-23T14:27:02;6.53;;;3.17;;
40757;SDS011;26462;47.384;19.218;2022-07-23T14:29:31;3.78;;;2.90;;
40757;SDS011;26462;47.384;19.218;2022-07-23T14:32:00;4.53;;;3.22;;
40757;SDS011;26462;47.384;19.218;2022-07-23T14:34:28;3.00;;;2.70;;
40757;SDS011;26462;47.384;19.218;2022-07-23T14:36:55;3.53;;;3.03;;
40757;SDS011;26462;47.384;19.218;2022-07-23T14:39:24;3.60;;;2.67;;
40757;SDS011;26462;47.384;19.218;2022-07-23T14:41:52;4.72;;;3.17;;
40757;SDS011;26462;47.384;19.218;2022-07-23T14:44:20;3.45;;;3.15;;
40757;SDS011;26462;47.384;19.218;2022-07-23T14:46:47;4.45;;;3.00;;
40757;SDS011;26462;47.384;19.218;2022-07-23T14:49:16;7.43;;;3.45;;
40757;SDS011;26462;47.384;19.218;2022-07-23T14:51:44;7.85;;;3.53;;
40757;SDS011;26462;47.384;19.218;2022-07-23T14:54:11;4.68;;;3.15;;
40757;SDS011;26462;47.384;19.218;2022-07-23T14:56:41;3.92;;;2.88;;
40757;SDS011;26462;47.384;19.218;2022-07-23T14:59:09;3.65;;;3.20;;
40757;SDS011;26462;47.384;19.218;2022-07-23T15:01:37;3.55;;;2.78;;
40757;SDS011;26462;47.384;19.218;2022-07-23T15:04:05;5.03;;;2.83;;
40757;SDS011;26462;47.384;19.218;2022-07-23T15:06:53;4.93;;;3.58;;
40757;SDS011;26462;47.384;19.218;2022-07-23T15:09:20;4.95;;;3.13;;
40757;SDS011;26462;47.384;19.218;2022-07-23T15:11:47;4.85;;;2.97;;
40757;SDS011;26462;47.384;19.218;2022-07-23T15:14:15;4.47;;;3.08;;
40757;SDS011;26462;47.384;19.218;2022-07-23T15:16:55;4.35;;;2.97;;
40757;SDS011;26462;47.384;19.218;2022-07-23T15:19:23;5.20;;;2.90;;
40757;SDS011;26462;47.384;19.218;2022-07-23T15:21:50;4.13;;;3.25;;
40757;SDS011;26462;47.384;19.218;2022-07-23T15:24:18;3.97;;;3.30;;
40757;SDS011;26462;47.384;19.218;2022-07-23T15:26:45;5.70;;;3.05;;
40757;SDS011;26462;47.384;19.218;2022-07-23T15:29:13;4.20;;;3.03;;
40757;SDS011;26462;47.384;19.218;2022-07-23T15:31:41;6.28;;;3.80;;
40757;SDS011;26462;47.384;19.218;2022-07-23T15:34:08;3.47;;;3.15;;
40757;SDS011;26462;47.384;19.218;2022-07-23T15:36:36;5.00;;;3.70;;
40757;SDS011;26462;47.384;19.218;2022-07-23T15:39:04;3.75;;;3.45;;
40757;SDS011;26462;47.384;19.218;2022-07-23T15:41:33;5.82;;;3.80;;